Terminal Aerodrome Forecast
Issued by NWS Wilmington, OH

Current Version | Previous Version | Text Only | Print | Product List | Glossary Off
Versions: 1 2 3 4 5 6 7 8 9 10 11 12 13 14 15 16 17 18 19

000
FTUS41 KILN 201100
TAFILN
TAF
KILN 201120Z 2012/2112 04008KT P6SM SCT100 OVC150
     FM210100 04007KT P6SM VCSH BKN050
     FM210400 04005KT P6SM BKN030=

USA.gov is the U.S. government's official web portal to all federal, state and local government web resources and services.